createdAt,value
2017-04-10T00:02:10.105Z,1007
2017-04-10T00:12:20.083Z,1006.8
2017-04-10T00:22:30.110Z,1006.7
2017-04-10T00:32:40.124Z,1006.7
2017-04-10T00:42:50.250Z,1006.6
2017-04-10T00:53:00.426Z,1006.4
2017-04-10T01:03:10.564Z,1006.3
2017-04-10T01:13:20.786Z,1006.3
2017-04-10T01:23:31.084Z,1006.2
2017-04-10T01:33:41.453Z,1006
2017-04-10T01:43:51.792Z,1005.9
2017-04-10T01:54:02.138Z,1005.8
2017-04-10T02:04:12.503Z,1005.8
2017-04-10T02:14:22.889Z,1005.6
2017-04-10T02:24:33.263Z,1005.6
2017-04-10T02:34:43.656Z,1005.4
2017-04-10T02:44:54.085Z,1005.3
2017-04-10T02:55:04.487Z,1005.3
2017-04-10T03:05:14.923Z,1005.4
2017-04-10T03:15:25.380Z,1005.3
2017-04-10T03:25:35.860Z,1005.3
2017-04-10T03:35:46.284Z,1005.3
2017-04-10T03:45:56.708Z,1005.3
2017-04-10T03:56:07.129Z,1005.4
2017-04-10T04:06:17.571Z,1005.5
2017-04-10T04:16:28.054Z,1005.4
2017-04-10T04:26:38.480Z,1005.5
2017-04-10T04:36:48.942Z,1005.6
2017-04-10T04:46:59.372Z,1005.7
2017-04-10T04:57:09.800Z,1005.9
2017-04-10T05:07:20.150Z,1006.3
2017-04-10T05:17:30.397Z,1006.3
2017-04-10T05:27:40.598Z,1006.3
2017-04-10T05:37:50.718Z,1006.5
2017-04-10T05:48:00.836Z,1006.8
2017-04-10T05:58:10.959Z,1006.9
2017-04-10T06:08:21.022Z,1007
2017-04-10T06:18:31.055Z,1007.3
2017-04-10T06:28:41.139Z,1007.3
2017-04-10T06:38:51.309Z,1007.6
2017-04-10T06:49:01.423Z,1007.6
2017-04-10T06:59:11.567Z,1007.7
2017-04-10T07:09:21.709Z,1007.9
2017-04-10T07:19:31.806Z,1008.1
2017-04-10T07:29:41.906Z,1008.3
2017-04-10T07:39:51.932Z,1008.5
2017-04-10T07:50:01.936Z,1008.3
2017-04-10T08:00:11.808Z,1008.7
2017-04-10T08:10:21.604Z,1008.8
2017-04-10T08:20:31.305Z,1009.1
2017-04-10T08:30:40.946Z,1009.1
2017-04-10T08:40:50.695Z,1009.3
2017-04-10T08:51:00.582Z,1009.5
2017-04-10T09:01:10.437Z,1009.6
2017-04-10T09:11:20.275Z,1009.8
2017-04-10T09:21:30.080Z,1009.8
2017-04-10T09:31:39.961Z,1009.9
2017-04-10T09:41:49.911Z,1009.9
2017-04-10T09:51:59.938Z,1010.1
2017-04-10T10:02:09.771Z,1010.2
2017-04-10T10:12:19.435Z,1010.1
2017-04-10T10:22:29.031Z,1010.1
2017-04-10T10:32:38.748Z,1010.4
2017-04-10T10:42:48.370Z,1010.4
2017-04-10T10:52:57.958Z,1010.3
2017-04-10T11:03:07.609Z,1010.3
2017-04-10T11:13:17.244Z,1010.4
2017-04-10T11:23:26.932Z,1010.4
2017-04-10T11:33:36.468Z,1010.7
2017-04-10T11:43:45.935Z,1010.7
2017-04-10T11:53:55.123Z,1010.7
2017-04-10T12:04:04.060Z,1010.4
2017-04-10T12:14:13.148Z,1010.7
2017-04-10T12:24:22.487Z,1010.6
2017-04-10T12:34:31.968Z,1010.9
2017-04-10T12:44:41.401Z,1010.9
2017-04-10T12:54:50.755Z,1011
2017-04-10T13:04:59.817Z,1010.8
2017-04-10T13:15:08.848Z,1010.8
2017-04-10T13:25:18.078Z,1010.9
2017-04-10T13:35:27.430Z,1011.1
2017-04-10T13:45:36.766Z,1011.2
2017-04-10T13:55:45.960Z,1011.1
2017-04-10T14:05:54.954Z,1011.2
2017-04-10T14:16:04.140Z,1010.9
2017-04-10T14:26:13.399Z,1010.9
2017-04-10T14:36:22.693Z,1011
2017-04-10T14:46:31.879Z,1011
2017-04-10T14:56:41.101Z,1011.2
2017-04-10T15:06:50.168Z,1011.3
2017-04-10T15:16:59.116Z,1011.2
2017-04-10T15:27:08.471Z,1011
2017-04-10T15:37:18.056Z,1011.5
2017-04-10T15:47:27.736Z,1011.5
2017-04-10T15:57:37.520Z,1011.4
2017-04-10T16:07:47.365Z,1011.5
2017-04-10T16:17:57.127Z,1011.4
2017-04-10T16:28:07.061Z,1011.5
2017-04-10T16:38:17.047Z,1011.5
2017-04-10T16:48:26.967Z,1011.6
2017-04-10T16:58:36.974Z,1011.7
2017-04-10T17:08:47.030Z,1011.9
2017-04-10T17:18:57.153Z,1012
2017-04-10T17:29:07.336Z,1012.1
2017-04-10T17:39:17.544Z,1011.9
2017-04-10T17:49:27.812Z,1011.9
2017-04-10T17:59:38.168Z,1012
2017-04-10T18:09:48.605Z,1012.1
2017-04-10T18:19:59.062Z,1012
2017-04-10T18:30:09.585Z,1012.1
2017-04-10T18:40:20.165Z,1012.3
2017-04-10T18:50:30.818Z,1012.2
2017-04-10T19:00:41.559Z,1012.3
2017-04-10T19:10:52.314Z,1012.5
2017-04-10T19:21:03.095Z,1012.5
2017-04-10T19:31:13.900Z,1012.6
2017-04-10T19:41:24.697Z,1012.7
2017-04-10T19:51:35.525Z,1012.8
2017-04-10T20:01:46.393Z,1012.9
2017-04-10T20:11:57.259Z,1012.9
2017-04-10T20:22:08.117Z,1013
2017-04-10T20:32:19.025Z,1013
2017-04-10T20:42:29.938Z,1013.1
2017-04-10T20:52:40.840Z,1013.1
2017-04-10T21:02:51.774Z,1013.2
2017-04-10T21:13:02.712Z,1013.3
2017-04-10T21:23:13.656Z,1013.3
2017-04-10T21:33:24.663Z,1013.4
2017-04-10T21:43:35.736Z,1013.4
2017-04-10T21:53:46.801Z,1013.4
2017-04-10T22:03:57.900Z,1013.5
2017-04-10T22:14:09.012Z,1013.5
2017-04-10T22:24:20.199Z,1013.7
2017-04-10T22:34:31.373Z,1013.6
2017-04-10T22:44:42.599Z,1013.6
2017-04-10T22:54:53.837Z,1013.7
2017-04-10T23:05:05.140Z,1013.8
2017-04-10T23:15:16.393Z,1013.7
2017-04-10T23:25:27.680Z,1013.7
2017-04-10T23:35:38.991Z,1013.7
2017-04-10T23:45:50.334Z,1013.8
2017-04-10T23:56:01.725Z,1013.9
